Time;durP1;ratioP1;P1;durP2;ratioP2;P2;SDS_P1;SDS_P2;PMS_P1;PMS_P2;Temp;Humidity;BMP_temperature;BMP_pressure;BME280_temperature;BME280_humidity;BME280_pressure;Samples;Min_cycle;Max_cycle;Signal;HPM_P1;HPM_P2
2024/04/23 00:00:12;;;;;;;1.52;1.00;;;8.40;89.80;;;;;;4191168;28;20074;-62
2024/04/23 00:02:13;;;;;;;1.60;0.90;;;8.40;89.50;;;;;;4196838;28;20052;-62
2024/04/23 00:04:16;;;;;;;2.70;0.52;;;8.20;88.60;;;;;;4202909;28;20255;-62
2024/04/23 00:06:17;;;;;;;2.15;0.43;;;8.30;89.00;;;;;;4202716;28;20048;-62
2024/04/23 00:08:18;;;;;;;0.47;0.30;;;8.30;88.50;;;;;;4197062;28;20049;-63
2024/04/23 00:10:20;;;;;;;0.40;0.40;;;8.30;89.30;;;;;;4208190;28;20052;-63
2024/04/23 00:12:21;;;;;;;0.68;0.28;;;8.30;88.90;;;;;;4196708;28;20430;-62
2024/04/23 00:14:23;;;;;;;0.38;0.25;;;8.30;89.70;;;;;;4200826;28;20188;-62
2024/04/23 00:16:24;;;;;;;0.60;0.40;;;8.30;88.70;;;;;;4204478;28;20476;-62
2024/04/23 00:18:25;;;;;;;1.13;0.45;;;8.30;89.30;;;;;;4196577;28;20053;-63
2024/04/23 00:20:28;;;;;;;0.40;0.40;;;8.20;90.00;;;;;;4208003;28;20040;-63
2024/04/23 00:22:29;;;;;;;0.82;0.30;;;8.20;90.10;;;;;;4196798;28;20572;-63
2024/04/23 00:24:31;;;;;;;2.85;0.73;;;8.20;90.20;;;;;;4200140;28;20044;-62
2024/04/23 00:26:32;;;;;;;0.65;0.30;;;8.20;90.60;;;;;;4203382;28;20047;-63
2024/04/23 00:28:33;;;;;;;1.05;0.60;;;8.10;90.10;;;;;;4213461;28;20048;-64
2024/04/23 00:30:34;;;;;;;0.85;0.52;;;8.10;90.30;;;;;;4186120;28;20045;-62
2024/04/23 00:32:36;;;;;;;1.08;0.28;;;8.10;90.30;;;;;;4211145;28;20052;-62
2024/04/23 00:34:37;;;;;;;0.75;0.30;;;8.20;90.30;;;;;;4211828;28;20546;-62
2024/04/23 00:36:50;;;;;;;0.40;0.30;;;8.20;90.30;;;;;;4201726;28;20410;-62
2024/04/23 00:38:51;;;;;;;1.50;0.68;;;8.20;90.20;;;;;;4195990;28;20051;-63
2024/04/23 00:40:52;;;;;;;1.17;0.40;;;8.20;89.60;;;;;;4202973;28;20428;-65
2024/04/23 00:42:54;;;;;;;0.60;0.40;;;8.10;89.90;;;;;;4210250;28;20066;-63
2024/04/23 00:44:55;;;;;;;3.50;0.40;;;8.10;90.40;;;;;;4211386;28;20060;-62
2024/04/23 00:46:57;;;;;;;0.93;0.73;;;8.10;90.10;;;;;;4201370;28;20052;-62
2024/04/23 00:48:58;;;;;;;1.95;0.95;;;8.20;90.20;;;;;;4212943;28;20043;-62
2024/04/23 00:50:59;;;;;;;0.30;0.30;;;8.10;90.10;;;;;;4204644;28;20040;-62
2024/04/23 00:53:03;;;;;;;0.38;0.32;;;8.10;90.20;;;;;;4207698;28;20048;-62
2024/04/23 00:55:05;;;;;;;8.45;1.98;;;8.10;90.40;;;;;;4211005;28;20048;-62
2024/04/23 00:57:06;;;;;;;3.03;0.65;;;8.00;90.10;;;;;;4201404;28;20077;-62
2024/04/23 00:59:13;;;;;;;0.85;0.38;;;8.10;90.20;;;;;;4212867;28;20062;-64
2024/04/23 01:01:16;;;;;;;1.27;0.38;;;8.10;90.10;;;;;;4188677;28;20197;-63
2024/04/23 01:03:17;;;;;;;0.43;0.30;;;8.10;90.50;;;;;;4207393;28;20082;-62
2024/04/23 01:05:22;;;;;;;0.22;0.22;;;8.00;90.00;;;;;;4210987;28;20051;-63
2024/04/23 01:07:23;;;;;;;0.65;0.40;;;7.90;90.20;;;;;;4200908;28;20040;-63
2024/04/23 01:09:27;;;;;;;0.95;0.55;;;7.80;90.20;;;;;;4212597;28;20060;-63
2024/04/23 01:11:28;;;;;;;0.73;0.50;;;7.90;90.30;;;;;;4205937;28;20056;-63
2024/04/23 01:13:30;;;;;;;2.00;0.35;;;7.90;90.40;;;;;;4206548;28;20044;-62
2024/04/23 01:15:31;;;;;;;0.73;0.73;;;7.90;90.30;;;;;;4212334;28;20554;-63
2024/04/23 01:17:33;;;;;;;1.40;0.50;;;7.90;90.40;;;;;;4201087;28;20383;-62
2024/04/23 01:19:37;;;;;;;1.08;0.30;;;7.90;90.60;;;;;;4212566;28;20125;-62
2024/04/23 01:21:48;;;;;;;1.60;0.82;;;7.90;90.50;;;;;;4208251;28;20102;-71
2024/04/23 01:23:56;;;;;;;1.70;0.40;;;7.80;90.40;;;;;;4207617;28;20051;-62
2024/04/23 01:26:06;;;;;;;0.57;0.50;;;7.90;90.60;;;;;;4211894;28;20489;-62
2024/04/23 01:28:07;;;;;;;2.90;0.40;;;7.80;90.20;;;;;;4207047;28;20048;-62
2024/04/23 01:30:11;;;;;;;6.72;1.88;;;7.70;90.20;;;;;;4195832;28;20479;-62
2024/04/23 01:32:13;;;;;;;1.25;0.68;;;7.70;90.40;;;;;;4199249;28;20447;-62
2024/04/23 01:34:14;;;;;;;0.10;0.10;;;7.60;90.50;;;;;;4206624;28;20055;-61
2024/04/23 01:36:17;;;;;;;3.15;1.00;;;7.60;90.80;;;;;;4211005;28;20490;-62
2024/04/23 01:38:19;;;;;;;0.95;0.40;;;7.60;91.00;;;;;;4200974;28;20419;-62
2024/04/23 01:40:21;;;;;;;0.68;0.68;;;7.70;91.00;;;;;;4212301;28;20059;-62
2024/04/23 01:42:24;;;;;;;1.10;0.43;;;7.70;91.00;;;;;;4208143;28;20235;-63
2024/04/23 01:44:28;;;;;;;2.55;1.13;;;7.60;91.00;;;;;;4202767;28;20048;-61
2024/04/23 01:46:30;;;;;;;0.50;0.30;;;7.60;91.10;;;;;;4195830;28;20048;-67
2024/04/23 01:48:32;;;;;;;0.47;0.40;;;7.60;91.10;;;;;;4207676;28;20052;-62
2024/04/23 01:50:34;;;;;;;1.25;0.43;;;7.60;91.20;;;;;;4195507;28;20411;-65
2024/04/23 01:52:36;;;;;;;0.43;0.30;;;7.60;91.00;;;;;;4199543;28;20044;-64
2024/04/23 01:54:38;;;;;;;0.50;0.50;;;7.50;91.20;;;;;;4205411;28;20052;-62
2024/04/23 01:56:40;;;;;;;0.25;0.25;;;7.50;91.40;;;;;;4195815;28;20048;-62
2024/04/23 01:58:43;;;;;;;0.40;0.30;;;7.50;91.60;;;;;;4207365;28;20051;-62
2024/04/23 02:00:46;;;;;;;1.10;0.43;;;7.50;91.40;;;;;;4196269;28;20052;-63
2024/04/23 02:02:48;;;;;;;2.17;1.30;;;7.60;91.40;;;;;;4198049;28;20049;-62
2024/04/23 02:04:52;;;;;;;0.38;0.30;;;7.60;91.20;;;;;;4204537;28;20048;-63
2024/04/23 02:06:54;;;;;;;0.60;0.40;;;7.50;91.50;;;;;;4195717;28;20053;-65
2024/04/23 02:08:56;;;;;;;0.75;0.75;;;7.50;91.70;;;;;;4200836;28;20459;-62
2024/04/23 02:10:57;;;;;;;0.50;0.30;;;7.50;91.30;;;;;;4195564;28;20540;-64
2024/04/23 02:12:59;;;;;;;0.73;0.55;;;7.60;91.50;;;;;;4180241;28;20398;-63
2024/04/23 02:15:02;;;;;;;0.68;0.22;;;7.60;91.60;;;;;;4206465;28;20086;-63
2024/04/23 02:17:05;;;;;;;0.82;0.40;;;7.60;91.40;;;;;;4195712;28;20121;-63
2024/04/23 02:19:07;;;;;;;0.13;0.10;;;7.50;91.30;;;;;;4204776;28;20050;-63
2024/04/23 02:21:08;;;;;;;0.63;0.30;;;7.40;91.60;;;;;;4198274;28;20055;-62
2024/04/23 02:23:09;;;;;;;0.88;0.52;;;7.40;91.60;;;;;;4198381;28;20413;-66
2024/04/23 02:25:11;;;;;;;1.17;0.32;;;7.40;91.90;;;;;;4202117;28;20043;-63
2024/04/23 02:27:12;;;;;;;1.27;0.40;;;7.50;91.60;;;;;;4214382;28;20504;-68
2024/04/23 02:29:14;;;;;;;3.33;0.70;;;7.50;91.50;;;;;;4205727;28;20056;-63
2024/04/23 02:31:17;;;;;;;0.32;0.22;;;7.50;91.50;;;;;;4207702;28;20062;-63
2024/04/23 02:38:11;;;;;;;1.95;0.57;;;7.40;91.60;;;;;;4165762;22;20055;-60
2024/04/23 02:40:13;;;;;;;1.33;1.10;;;7.40;91.50;;;;;;4074486;29;20071;-59
2024/04/23 02:42:14;;;;;;;1.52;0.50;;;7.40;91.70;;;;;;4080422;29;20047;-59
2024/04/23 02:44:16;;;;;;;2.05;0.88;;;7.40;91.60;;;;;;4080238;29;20056;-59
2024/04/23 02:46:18;;;;;;;1.30;0.50;;;7.30;91.80;;;;;;4077376;29;20107;-58
2024/04/23 02:48:20;;;;;;;0.40;0.20;;;7.20;91.60;;;;;;4077386;29;20048;-58
2024/04/23 02:50:21;;;;;;;0.68;0.32;;;7.20;91.90;;;;;;4073820;29;20058;-60
2024/04/23 02:52:23;;;;;;;4.18;0.40;;;7.30;92.10;;;;;;4083482;29;20484;-60
2024/04/23 02:54:24;;;;;;;2.83;0.75;;;7.20;91.60;;;;;;4066711;29;20115;-60
2024/04/23 02:56:26;;;;;;;0.77;0.50;;;7.10;91.50;;;;;;4073426;29;20051;-59
2024/04/23 02:58:27;;;;;;;0.38;0.30;;;7.20;92.00;;;;;;4084628;29;20069;-60
2024/04/23 03:00:28;;;;;;;30.77;0.85;;;7.10;91.90;;;;;;4080298;29;20060;-60
2024/04/23 03:02:31;;;;;;;0.20;0.20;;;7.00;91.60;;;;;;4071798;29;20048;-58
2024/04/23 03:04:32;;;;;;;0.95;0.52;;;7.00;91.60;;;;;;4069778;29;20051;-60
2024/04/23 03:06:33;;;;;;;0.50;0.50;;;7.00;92.20;;;;;;4079344;29;20044;-59
2024/04/23 03:08:34;;;;;;;0.88;0.70;;;7.00;91.60;;;;;;4068674;29;20056;-58
2024/04/23 03:10:36;;;;;;;1.10;0.60;;;6.90;91.50;;;;;;4075449;29;20043;-61
2024/04/23 03:12:37;;;;;;;0.60;0.57;;;7.00;91.90;;;;;;4073621;29;20060;-59
2024/04/23 03:14:38;;;;;;;1.50;0.57;;;6.90;92.40;;;;;;4066289;29;20060;-61
2024/04/23 03:16:39;;;;;;;4.43;0.85;;;7.00;92.30;;;;;;4073929;29;20418;-58
2024/04/23 03:18:42;;;;;;;0.73;0.40;;;7.10;91.90;;;;;;4084260;29;20062;-67
2024/04/23 03:20:43;;;;;;;1.30;0.60;;;7.10;92.30;;;;;;4078919;29;20473;-58
2024/04/23 03:22:44;;;;;;;1.55;0.50;;;7.10;92.00;;;;;;4077644;29;20421;-61
2024/04/23 03:24:45;;;;;;;0.90;0.60;;;7.20;91.80;;;;;;4083515;29;20055;-67
2024/04/23 03:26:47;;;;;;;1.23;0.70;;;7.10;91.90;;;;;;4072074;29;20056;-60
2024/04/23 03:28:48;;;;;;;3.22;1.48;;;7.10;92.50;;;;;;4068336;29;20055;-60
2024/04/23 03:30:49;;;;;;;3.75;1.15;;;7.10;92.00;;;;;;4064612;29;20490;-60
2024/04/23 03:32:50;;;;;;;1.05;0.93;;;7.10;92.40;;;;;;4075525;29;20040;-59
2024/04/23 03:34:53;;;;;;;0.40;0.40;;;7.00;91.80;;;;;;4084027;29;20052;-60
2024/04/23 03:36:54;;;;;;;2.42;1.05;;;7.00;92.20;;;;;;4073411;29;20056;-59
2024/04/23 03:38:56;;;;;;;0.70;0.32;;;6.90;92.00;;;;;;4082146;29;20059;-62
2024/04/23 03:40:57;;;;;;;4.63;1.90;;;7.00;92.50;;;;;;4079641;29;20497;-58
2024/04/23 03:42:58;;;;;;;0.75;0.43;;;7.10;92.40;;;;;;4078458;29;20395;-59
2024/04/23 03:44:59;;;;;;;1.15;0.70;;;7.10;92.20;;;;;;4068193;29;20111;-59
2024/04/23 03:47:00;;;;;;;1.20;0.68;;;7.10;92.30;;;;;;4076411;29;20048;-58
2024/04/23 03:49:02;;;;;;;2.47;0.45;;;7.10;92.40;;;;;;4071315;29;20498;-63
2024/04/23 03:51:05;;;;;;;0.73;0.40;;;7.20;92.30;;;;;;4069400;29;20402;-57
2024/04/23 03:53:06;;;;;;;0.52;0.43;;;7.20;92.20;;;;;;4078668;29;20178;-60
2024/04/23 03:55:07;;;;;;;5.38;0.93;;;7.10;92.30;;;;;;4067832;29;20052;-63
2024/04/23 03:57:09;;;;;;;0.50;0.35;;;7.20;92.10;;;;;;4072020;29;20059;-59
2024/04/23 03:59:10;;;;;;;1.25;0.40;;;7.00;92.10;;;;;;4079068;29;20070;-58
2024/04/23 04:01:11;;;;;;;0.95;0.60;;;7.00;92.30;;;;;;4066703;29;20434;-57
2024/04/23 04:07:53;;;;;;;1.23;1.05;;;6.90;92.50;;;;;;4072901;29;20056;-60
2024/04/23 04:09:54;;;;;;;2.28;0.88;;;7.10;92.80;;;;;;4081792;29;20051;-67
2024/04/23 04:11:57;;;;;;;0.88;0.57;;;7.10;92.40;;;;;;4081777;29;20114;-60
2024/04/23 04:13:58;;;;;;;0.93;0.60;;;7.10;92.20;;;;;;4073244;29;20048;-60
2024/04/23 04:15:59;;;;;;;2.50;0.60;;;7.10;92.30;;;;;;4083132;29;20062;-60
2024/04/23 04:18:04;;;;;;;10.70;1.88;;;7.20;92.30;;;;;;4079145;29;20052;-58
2024/04/23 04:20:06;;;;;;;1.25;0.70;;;7.20;92.50;;;;;;4070407;29;20056;-60
2024/04/23 04:22:07;;;;;;;1.90;0.60;;;7.20;92.20;;;;;;4068296;29;20067;-60
2024/04/23 04:24:10;;;;;;;1.27;1.02;;;7.10;92.10;;;;;;4078338;29;20485;-60
2024/04/23 04:26:13;;;;;;;0.45;0.43;;;7.00;92.50;;;;;;4067519;29;20413;-61
2024/04/23 04:28:15;;;;;;;0.68;0.30;;;6.90;92.20;;;;;;4075168;29;20082;-62
2024/04/23 04:30:16;;;;;;;1.10;0.63;;;7.00;92.40;;;;;;4055997;29;20052;-60
2024/04/23 04:32:17;;;;;;;2.03;0.50;;;6.90;92.00;;;;;;4077025;29;20060;-60
2024/04/23 04:34:18;;;;;;;0.68;0.47;;;6.90;92.60;;;;;;4072714;29;20075;-60
2024/04/23 04:36:19;;;;;;;0.80;0.68;;;7.00;92.30;;;;;;4082995;29;20062;-60
2024/04/23 04:38:21;;;;;;;6.38;1.20;;;7.10;92.10;;;;;;4076564;29;20052;-60
2024/04/23 04:40:24;;;;;;;0.95;0.60;;;7.00;92.30;;;;;;4061509;29;20201;-59
2024/04/23 04:42:25;;;;;;;2.03;0.73;;;6.90;92.00;;;;;;4082520;29;20489;-60
2024/04/23 04:44:26;;;;;;;0.80;0.60;;;7.00;92.40;;;;;;4078397;29;20485;-60
2024/04/23 04:46:27;;;;;;;0.88;0.88;;;6.90;92.40;;;;;;4067179;29;20062;-60
2024/04/23 04:48:28;;;;;;;1.05;0.52;;;6.80;92.30;;;;;;4071115;29;20051;-60
2024/04/23 04:50:30;;;;;;;1.13;0.70;;;6.60;92.20;;;;;;4075135;29;20052;-60
2024/04/23 04:52:31;;;;;;;2.22;1.38;;;6.60;92.40;;;;;;4067303;29;20490;-64
2024/04/23 04:54:32;;;;;;;1.10;0.90;;;6.70;92.80;;;;;;4078083;29;20048;-60
2024/04/23 04:56:35;;;;;;;0.57;0.55;;;6.80;92.60;;;;;;4067949;29;20052;-60
2024/04/23 04:58:36;;;;;;;1.95;0.60;;;6.80;92.90;;;;;;4069238;29;20044;-60
2024/04/23 05:00:38;;;;;;;0.60;0.50;;;6.70;92.30;;;;;;4067200;29;20048;-61
2024/04/23 05:02:39;;;;;;;4.75;1.48;;;6.70;92.10;;;;;;4067205;29;20062;-60
2024/04/23 05:04:40;;;;;;;0.60;0.60;;;6.80;92.90;;;;;;4083396;29;20043;-59
2024/04/23 05:06:41;;;;;;;1.38;0.70;;;6.80;92.70;;;;;;4069246;29;20048;-61
2024/04/23 05:08:42;;;;;;;1.38;0.93;;;6.80;92.10;;;;;;4068881;29;20056;-60
2024/04/23 05:10:44;;;;;;;0.70;0.50;;;6.80;92.20;;;;;;4078060;29;20504;-60
2024/04/23 05:12:46;;;;;;;1.42;0.85;;;6.90;92.70;;;;;;4067180;29;20052;-61
2024/04/23 05:14:47;;;;;;;1.15;0.70;;;6.80;92.30;;;;;;4074802;29;20482;-60
2024/04/23 05:16:48;;;;;;;1.25;0.60;;;6.80;92.50;;;;;;4071814;29;20355;-60
2024/04/23 05:18:50;;;;;;;1.30;0.60;;;6.90;92.70;;;;;;4068068;29;20067;-59
2024/04/23 05:20:52;;;;;;;1.35;0.70;;;7.00;92.30;;;;;;4077110;29;20119;-61
2024/04/23 05:22:53;;;;;;;3.03;0.90;;;7.00;92.00;;;;;;4066878;29;20048;-60
2024/04/23 05:24:54;;;;;;;1.52;1.35;;;6.90;92.00;;;;;;4056942;29;20052;-59
2024/04/23 05:26:56;;;;;;;1.15;1.05;;;6.90;92.10;;;;;;4072580;29;20348;-59
2024/04/23 05:28:58;;;;;;;1.23;0.80;;;6.90;91.80;;;;;;4067125;29;20048;-61
2024/04/23 05:33:20;;;;;;;1.15;1.05;;;7.10;92.20;;;;;;4066918;29;20056;-64
2024/04/23 05:35:21;;;;;;;2.88;0.63;;;7.00;91.80;;;;;;4072920;29;20057;-59
2024/04/23 05:37:23;;;;;;;1.00;0.70;;;6.90;91.90;;;;;;4071741;29;20083;-60
2024/04/23 05:39:24;;;;;;;1.75;1.10;;;6.90;91.80;;;;;;4067614;29;20060;-57
2024/04/23 05:41:25;;;;;;;1.73;1.42;;;6.80;92.00;;;;;;4077408;29;20494;-58
2024/04/23 05:43:26;;;;;;;5.60;0.80;;;6.80;92.20;;;;;;4067119;29;20052;-60
2024/04/23 05:45:29;;;;;;;1.33;1.17;;;6.80;92.30;;;;;;4071440;29;20055;-60
2024/04/23 05:47:30;;;;;;;1.40;0.70;;;6.90;92.20;;;;;;4057610;29;20060;-59
2024/04/23 05:50:10;;;;;;;2.45;1.40;;;6.90;92.50;;;;;;4066343;29;20048;-59
2024/04/23 05:52:48;;;;;;;1.70;1.45;;;6.90;91.80;;;;;;4076892;29;20060;-59
2024/04/23 05:55:30;;;;;;;2.08;1.48;;;7.00;92.00;;;;;;4066728;29;20068;-57
2024/04/23 05:57:31;;;;;;;2.90;0.98;;;6.90;91.90;;;;;;4072783;29;20106;-57
2024/04/23 05:59:33;;;;;;;0.90;0.73;;;6.80;92.30;;;;;;4082135;29;20106;-57
2024/04/23 06:01:35;;;;;;;3.85;1.98;;;6.80;92.10;;;;;;4072646;29;20044;-61
2024/04/23 06:03:36;;;;;;;2.22;1.20;;;6.90;92.20;;;;;;4079930;29;20058;-60
2024/04/23 06:05:38;;;;;;;2.33;0.73;;;6.90;92.00;;;;;;4080557;29;20047;-58
2024/04/23 06:07:39;;;;;;;1.77;1.05;;;6.90;92.20;;;;;;4071641;29;20485;-63
2024/04/23 06:09:40;;;;;;;3.45;1.83;;;7.00;92.30;;;;;;4082462;29;20060;-58
2024/04/23 06:11:41;;;;;;;4.60;2.25;;;7.00;92.40;;;;;;4074401;29;20040;-59
2024/04/23 06:13:46;;;;;;;1.30;1.20;;;7.10;92.20;;;;;;4077807;29;20509;-60
2024/04/23 06:15:47;;;;;;;2.95;1.83;;;7.10;92.40;;;;;;4080635;29;20058;-60
2024/04/23 06:17:49;;;;;;;2.00;1.05;;;7.00;91.90;;;;;;4072889;29;20043;-60
2024/04/23 06:19:51;;;;;;;2.00;0.95;;;7.10;92.30;;;;;;4084888;29;20492;-60
2024/04/23 06:21:52;;;;;;;1.38;1.23;;;7.10;92.30;;;;;;4078693;29;20052;-64
2024/04/23 06:23:53;;;;;;;0.98;0.60;;;7.20;92.10;;;;;;4063905;29;20052;-60
2024/04/23 06:25:57;;;;;;;2.30;1.45;;;7.10;92.10;;;;;;4084154;29;20490;-59
2024/04/23 06:27:58;;;;;;;2.40;1.45;;;7.10;92.60;;;;;;4079782;29;20060;-59
2024/04/23 06:30:06;;;;;;;4.00;1.10;;;7.10;92.00;;;;;;4069243;29;20058;-60
2024/04/23 06:32:07;;;;;;;0.98;0.80;;;7.00;92.20;;;;;;4073143;29;20044;-61
2024/04/23 06:34:10;;;;;;;2.10;0.93;;;7.00;92.20;;;;;;4078366;29;20047;-64
2024/04/23 06:36:11;;;;;;;0.95;0.90;;;7.10;92.50;;;;;;4084727;29;20846;-60
2024/04/23 06:38:12;;;;;;;1.55;0.82;;;7.20;92.10;;;;;;4073249;29;20317;-60
2024/04/23 06:40:13;;;;;;;1.23;0.90;;;7.30;92.40;;;;;;4069386;29;20048;-60
2024/04/23 06:42:15;;;;;;;1.27;1.02;;;7.30;92.30;;;;;;4080694;29;20060;-60
2024/04/23 06:44:16;;;;;;;1.30;0.90;;;7.30;92.10;;;;;;4077049;29;20080;-60
2024/04/23 06:46:17;;;;;;;1.40;1.27;;;7.40;92.30;;;;;;4069181;29;20056;-60
2024/04/23 06:48:18;;;;;;;3.83;1.65;;;7.50;92.20;;;;;;4079264;29;20055;-60
2024/04/23 06:50:21;;;;;;;1.13;1.00;;;7.50;92.20;;;;;;4069952;29;20052;-57
2024/04/23 06:52:22;;;;;;;1.77;1.30;;;7.60;92.10;;;;;;4070671;29;20048;-58
2024/04/23 06:54:24;;;;;;;1.63;1.00;;;8.20;92.60;;;;;;4078564;29;20052;-58
2024/04/23 06:56:25;;;;;;;1.50;0.80;;;8.50;90.80;;;;;;4069006;29;20048;-60
2024/04/23 06:58:26;;;;;;;2.15;1.10;;;8.50;90.30;;;;;;4077636;29;20063;-62
2024/04/23 07:00:27;;;;;;;3.15;1.25;;;8.50;90.70;;;;;;4071527;29;20052;-60
2024/04/23 07:02:28;;;;;;;2.03;1.00;;;8.40;91.00;;;;;;4054036;29;20040;-59
2024/04/23 07:04:29;;;;;;;1.85;1.55;;;8.20;90.80;;;;;;4079269;29;20051;-60
2024/04/23 07:06:32;;;;;;;1.50;1.13;;;8.30;90.90;;;;;;4068757;29;20056;-60
2024/04/23 07:08:33;;;;;;;1.50;1.15;;;8.30;90.90;;;;;;4075840;29;20062;-59
2024/04/23 07:10:34;;;;;;;1.58;1.30;;;8.40;90.50;;;;;;4073029;29;20047;-60
2024/04/23 07:12:36;;;;;;;1.02;0.93;;;8.20;90.80;;;;;;4069974;29;20115;-60
2024/04/23 07:14:37;;;;;;;3.28;1.00;;;8.10;90.60;;;;;;4079150;29;20499;-63
2024/04/23 07:16:42;;;;;;;3.25;1.10;;;8.00;90.80;;;;;;4037145;29;20049;-60
2024/04/23 07:18:43;;;;;;;2.72;1.20;;;8.20;91.00;;;;;;4074233;29;20060;-59
2024/04/23 07:20:45;;;;;;;1.98;1.00;;;8.20;90.90;;;;;;4074590;29;20407;-63
2024/04/23 07:22:47;;;;;;;1.60;0.93;;;8.20;90.80;;;;;;4069258;29;20116;-63
2024/04/23 07:24:48;;;;;;;1.00;0.80;;;8.30;91.30;;;;;;4079417;29;20515;-60
2024/04/23 07:26:51;;;;;;;3.75;1.88;;;8.50;90.90;;;;;;4068923;29;20334;-60
2024/04/23 07:28:53;;;;;;;1.88;1.38;;;8.60;90.70;;;;;;4071955;29;20058;-62
2024/04/23 07:30:54;;;;;;;1.75;1.10;;;8.80;90.60;;;;;;4075357;29;20048;-61
2024/04/23 07:32:55;;;;;;;2.05;1.05;;;9.00;90.10;;;;;;4068694;29;20451;-61
2024/04/23 07:34:57;;;;;;;1.65;0.90;;;9.00;90.30;;;;;;4079783;29;20047;-66
2024/04/23 07:36:58;;;;;;;2.97;0.90;;;9.00;89.70;;;;;;4052937;29;20441;-60
2024/04/23 07:39:01;;;;;;;1.38;0.82;;;9.20;89.80;;;;;;4070727;29;20066;-60
2024/04/23 07:41:02;;;;;;;1.95;0.80;;;9.20;89.80;;;;;;4081645;29;20051;-60
2024/04/23 07:43:04;;;;;;;1.45;1.15;;;9.50;89.70;;;;;;4084233;29;20058;-59
2024/04/23 07:45:06;;;;;;;1.15;0.80;;;9.70;89.10;;;;;;4073986;29;20095;-60
2024/04/23 07:47:07;;;;;;;1.88;1.00;;;9.90;88.00;;;;;;4081830;29;20044;-61
2024/04/23 07:49:08;;;;;;;2.00;1.02;;;10.00;87.50;;;;;;4082319;29;20051;-60
2024/04/23 07:51:09;;;;;;;1.63;1.13;;;10.10;86.80;;;;;;4073125;29;20058;-60
2024/04/23 07:53:11;;;;;;;2.40;1.52;;;10.20;86.80;;;;;;4084055;29;20107;-61
2024/04/23 07:55:13;;;;;;;1.25;1.00;;;10.30;86.30;;;;;;4075938;29;20048;-60
2024/04/23 07:57:14;;;;;;;2.25;1.33;;;10.30;86.20;;;;;;4080267;29;20156;-60
2024/04/23 07:59:17;;;;;;;1.58;1.20;;;10.40;86.30;;;;;;4066412;29;20052;-64
2024/04/23 08:01:18;;;;;;;5.78;1.00;;;10.40;85.80;;;;;;4073022;29;20040;-61
2024/04/23 08:03:19;;;;;;;1.63;0.98;;;10.30;85.40;;;;;;4083999;29;20517;-60
2024/04/23 08:05:21;;;;;;;2.13;1.10;;;10.30;84.50;;;;;;4076774;29;20048;-59
2024/04/23 08:07:22;;;;;;;1.52;1.17;;;10.30;84.40;;;;;;4078477;29;20516;-60
2024/04/23 08:09:23;;;;;;;1.88;0.88;;;10.30;80.70;;;;;;4082528;29;20461;-61
2024/04/23 08:11:26;;;;;;;1.80;1.08;;;10.20;81.20;;;;;;4079095;29;20170;-62
2024/04/23 08:13:28;;;;;;;1.13;0.90;;;10.10;80.90;;;;;;4068024;29;20504;-64
2024/04/23 08:15:29;;;;;;;1.67;0.70;;;10.20;82.00;;;;;;4072116;29;20047;-60
2024/04/23 08:17:30;;;;;;;1.35;0.65;;;10.20;79.60;;;;;;4074473;29;20403;-60
2024/04/23 08:19:31;;;;;;;1.27;0.60;;;10.00;78.30;;;;;;4068198;29;20056;-67
2024/04/23 08:21:35;;;;;;;1.40;1.08;;;9.90;79.50;;;;;;4080010;29;20099;-60
2024/04/23 08:23:37;;;;;;;1.77;0.82;;;10.00;78.80;;;;;;4072351;29;20044;-61
2024/04/23 08:25:38;;;;;;;0.93;0.63;;;9.80;77.30;;;;;;4055934;29;20100;-59
2024/04/23 08:27:44;;;;;;;1.58;0.90;;;9.80;76.70;;;;;;4074918;29;20616;-59
2024/04/23 08:29:46;;;;;;;2.75;0.80;;;9.80;77.20;;;;;;4067346;29;20111;-60
2024/04/23 08:31:47;;;;;;;0.57;0.40;;;9.70;76.60;;;;;;4071848;29;20059;-59
2024/04/23 08:33:48;;;;;;;0.60;0.60;;;9.80;79.10;;;;;;4082360;29;20111;-59
2024/04/23 08:35:49;;;;;;;0.73;0.50;;;10.00;77.60;;;;;;4079194;29;20083;-59
2024/04/23 08:37:50;;;;;;;0.80;0.60;;;10.20;77.30;;;;;;4077268;29;20060;-58
2024/04/23 08:39:52;;;;;;;0.75;0.43;;;10.30;75.70;;;;;;4067962;29;20048;-60
2024/04/23 08:41:55;;;;;;;0.95;0.80;;;10.40;74.60;;;;;;4064377;29;20462;-60
2024/04/23 08:44:06;;;;;;;1.83;0.90;;;10.30;75.30;;;;;;4054070;29;20056;-60
2024/04/23 08:46:08;;;;;;;1.13;0.55;;;10.20;74.60;;;;;;4069273;29;20052;-63
2024/04/23 08:48:10;;;;;;;4.07;1.05;;;10.20;74.20;;;;;;4077624;29;20044;-60
2024/04/23 08:50:12;;;;;;;0.55;0.40;;;10.20;73.50;;;;;;4067788;29;20048;-63
2024/04/23 08:52:16;;;;;;;0.73;0.50;;;10.10;74.10;;;;;;4076345;29;20060;-60
2024/04/23 08:54:17;;;;;;;0.40;0.40;;;10.30;74.50;;;;;;4069596;29;20059;-60
2024/04/23 08:56:23;;;;;;;2.28;0.30;;;10.20;71.00;;;;;;4052881;29;20052;-60
2024/04/23 08:58:25;;;;;;;0.70;0.60;;;10.20;70.80;;;;;;4077546;29;20044;-60
2024/04/23 09:00:28;;;;;;;0.28;0.22;;;10.10;70.10;;;;;;4067413;29;20058;-64
2024/04/23 09:02:35;;;;;;;4.07;0.85;;;10.10;70.80;;;;;;4075442;29;20043;-60
2024/04/23 09:04:37;;;;;;;0.65;0.40;;;10.20;71.90;;;;;;4070107;29;20474;-59
2024/04/23 09:06:40;;;;;;;0.65;0.30;;;10.20;70.30;;;;;;4068370;29;20103;-61
2024/04/23 09:08:41;;;;;;;2.95;1.00;;;10.30;69.40;;;;;;4077812;29;20458;-60
2024/04/23 09:10:43;;;;;;;0.38;0.20;;;10.20;69.70;;;;;;4068506;29;20056;-60
2024/04/23 09:12:46;;;;;;;2.67;0.98;;;10.20;70.40;;;;;;4074829;29;20584;-59
2024/04/23 09:14:48;;;;;;;0.30;0.25;;;10.20;68.60;;;;;;4071348;29;20062;-60
2024/04/23 09:16:54;;;;;;;0.40;0.10;;;10.30;68.00;;;;;;4068512;29;20760;-63
2024/04/23 09:18:55;;;;;;;1.95;0.43;;;10.20;67.40;;;;;;4062482;29;20044;-61
2024/04/23 09:20:57;;;;;;;0.20;0.20;;;10.30;67.10;;;;;;4067336;29;20103;-60
2024/04/23 09:23:00;;;;;;;0.45;0.20;;;10.40;66.60;;;;;;4073438;29;20047;-60
2024/04/23 09:25:02;;;;;;;1.70;0.73;;;10.40;68.30;;;;;;4071979;29;20074;-58
2024/04/23 09:27:05;;;;;;;1.25;0.30;;;10.60;67.10;;;;;;4067846;29;20058;-58
2024/04/23 09:29:06;;;;;;;0.63;0.57;;;10.50;66.70;;;;;;4077494;29;20047;-58
2024/04/23 09:31:07;;;;;;;0.40;0.32;;;10.50;65.90;;;;;;4068561;29;20044;-58
2024/04/23 09:33:10;;;;;;;0.70;0.28;;;10.50;65.90;;;;;;4076712;29;20095;-58
2024/04/23 09:35:14;;;;;;;0.20;0.20;;;10.50;64.20;;;;;;4076292;29;20457;-60
2024/04/23 09:37:16;;;;;;;1.00;0.28;;;10.50;66.80;;;;;;4081804;29;20518;-66
2024/04/23 09:39:18;;;;;;;0.50;0.30;;;10.50;64.50;;;;;;4071235;29;20410;-58
2024/04/23 09:41:20;;;;;;;0.95;0.10;;;10.50;63.40;;;;;;4084859;29;20048;-57
2024/04/23 09:43:22;;;;;;;0.43;0.43;;;10.60;63.80;;;;;;4078287;29;20054;-58
2024/04/23 09:45:25;;;;;;;0.52;0.38;;;10.60;62.40;;;;;;4073903;29;20048;-57
2024/04/23 09:47:27;;;;;;;0.63;0.38;;;10.50;63.30;;;;;;4050886;29;20104;-57
2024/04/23 09:49:31;;;;;;;0.30;0.28;;;10.50;64.70;;;;;;4078251;29;20058;-57
2024/04/23 09:51:32;;;;;;;0.30;0.30;;;10.60;63.40;;;;;;4066617;29;20048;-58
2024/04/23 09:53:35;;;;;;;0.30;0.30;;;10.60;63.40;;;;;;4072988;29;20056;-57
2024/04/23 09:55:36;;;;;;;0.20;0.20;;;10.70;62.30;;;;;;4078536;29;20092;-62
2024/04/23 09:57:38;;;;;;;0.47;0.20;;;10.80;61.70;;;;;;4069933;29;20060;-60
2024/04/23 09:59:39;;;;;;;0.82;0.38;;;10.80;61.60;;;;;;4080508;29;20107;-59
2024/04/23 10:01:42;;;;;;;0.28;0.20;;;10.70;63.50;;;;;;4071714;29;20063;-57
2024/04/23 10:03:43;;;;;;;0.28;0.20;;;10.70;62.90;;;;;;4071568;29;20056;-59
2024/04/23 10:05:49;;;;;;;0.15;0.15;;;10.80;63.40;;;;;;4079986;29;20048;-57
2024/04/23 10:07:56;;;;;;;0.20;0.13;;;10.90;62.60;;;;;;4069936;29;20561;-63
2024/04/23 10:09:59;;;;;;;1.00;0.40;;;10.90;64.10;;;;;;4064211;29;20052;-61
2024/04/23 10:12:05;;;;;;;0.70;0.25;;;10.90;63.20;;;;;;4071082;29;20444;-62
2024/04/23 10:14:17;;;;;;;11.82;2.17;;;10.90;64.80;;;;;;4073778;29;20055;-58
2024/04/23 10:16:23;;;;;;;0.77;0.30;;;11.00;62.90;;;;;;4077864;29;20402;-63
2024/04/23 10:18:34;;;;;;;3.22;0.30;;;11.00;63.60;;;;;;4086012;29;20107;-58
2024/04/23 10:20:38;;;;;;;0.45;0.22;;;11.10;63.50;;;;;;4073934;29;20581;-59
2024/04/23 10:22:41;;;;;;;1.40;0.30;;;11.10;63.20;;;;;;4070043;29;20486;-58
2024/04/23 10:24:43;;;;;;;0.40;0.40;;;11.20;63.20;;;;;;4080671;29;20052;-59
2024/04/23 10:26:48;;;;;;;0.20;0.20;;;11.20;63.10;;;;;;4078248;29;20055;-62
2024/04/23 10:28:50;;;;;;;;;;;11.10;62.90;;;;;;4086174;29;20048;-59
2024/04/23 10:30:51;;;;;;;2.17;0.45;;;11.10;63.00;;;;;;4097216;29;19926;-59
2024/04/23 10:32:55;;;;;;;0.25;0.20;;;11.20;62.50;;;;;;4085535;29;20401;-57
2024/04/23 10:34:59;;;;;;;0.10;0.10;;;11.10;61.90;;;;;;4081437;29;20051;-59
2024/04/23 10:37:01;;;;;;;0.77;0.20;;;11.10;62.90;;;;;;4077277;29;20094;-62
2024/04/23 10:39:11;;;;;;;0.50;0.20;;;11.20;63.50;;;;;;4085309;29;20055;-61
2024/04/23 10:41:13;;;;;;;0.15;0.10;;;11.10;61.30;;;;;;4056953;29;20048;-61
2024/04/23 10:43:15;;;;;;;1.35;0.15;;;11.10;63.60;;;;;;4082555;29;20063;-58
2024/04/23 10:45:16;;;;;;;0.82;0.22;;;11.60;66.10;;;;;;4076843;29;20060;-60
2024/04/23 10:47:17;;;;;;;0.30;0.10;;;11.70;65.80;;;;;;4079015;29;20046;-60
2024/04/23 10:49:24;;;;;;;0.13;0.10;;;11.80;63.40;;;;;;4084673;29;20099;-60
2024/04/23 10:51:26;;;;;;;0.13;0.13;;;11.90;63.60;;;;;;4074326;29;20056;-57
2024/04/23 10:53:30;;;;;;;0.38;0.20;;;11.90;60.30;;;;;;4076383;29;20051;-58
2024/04/23 10:55:32;;;;;;;0.20;0.10;;;11.90;61.10;;;;;;4081842;29;20039;-58